createdAt,value
2022-10-03T00:00:53.812Z,48.95
2022-10-03T00:01:53.839Z,52.46
2022-10-03T00:02:53.821Z,52.18
2022-10-03T00:03:53.776Z,59.61
2022-10-03T00:04:53.767Z,60.49
2022-10-03T00:05:53.756Z,49.48
2022-10-03T00:06:53.741Z,57.23
2022-10-03T00:07:53.736Z,42.28
2022-10-03T00:08:53.724Z,51.27
2022-10-03T00:09:53.731Z,51.78
2022-10-03T00:10:53.715Z,47.76
2022-10-03T00:11:53.703Z,53.39
2022-10-03T00:12:53.695Z,52.96
2022-10-03T00:13:53.686Z,57.37
2022-10-03T00:14:53.693Z,48.56
2022-10-03T00:15:53.715Z,43.72
2022-10-03T00:16:53.666Z,48.57
2022-10-03T00:17:53.652Z,52.61
2022-10-03T00:18:53.643Z,50.24
2022-10-03T00:19:53.651Z,42.87
2022-10-03T00:20:54.346Z,54.86
2022-10-03T00:21:53.630Z,57.26
2022-10-03T00:22:54.351Z,51.27
2022-10-03T00:23:53.610Z,47.72
2022-10-03T00:24:53.599Z,51.47
2022-10-03T00:25:53.604Z,51.12
2022-10-03T00:26:53.584Z,56.43
2022-10-03T00:27:53.652Z,52.42
2022-10-03T00:28:53.572Z,52.61
2022-10-03T00:31:42.567Z,46.65
2022-10-03T00:32:42.113Z,54.95
2022-10-03T00:33:43.202Z,44.20
2022-10-03T00:34:43.194Z,50.11
2022-10-03T00:35:43.188Z,47.86
2022-10-03T00:36:43.173Z,55.89
2022-10-03T00:37:43.168Z,53.18
2022-10-03T00:38:43.174Z,49.98
2022-10-03T00:39:43.147Z,53.34
2022-10-03T00:40:43.136Z,56.50
2022-10-03T00:41:43.141Z,44.71
2022-10-03T00:42:43.121Z,55.60
2022-10-03T00:43:43.128Z,46.78
2022-10-03T00:44:43.115Z,54.28
2022-10-03T00:45:43.101Z,57.22
2022-10-03T00:46:43.182Z,45.25
2022-10-03T00:47:43.090Z,46.77
2022-10-03T00:48:43.090Z,52.97
2022-10-03T00:49:43.074Z,52.00
2022-10-03T00:50:43.063Z,56.01
2022-10-03T00:51:43.057Z,53.08
2022-10-03T00:52:43.047Z,51.67
2022-10-03T00:53:43.037Z,51.51
2022-10-03T00:54:43.027Z,51.44
2022-10-03T00:55:43.020Z,46.54
2022-10-03T00:56:43.063Z,57.65
2022-10-03T00:57:43.021Z,59.91
2022-10-03T00:58:42.998Z,51.11
2022-10-03T00:59:46.222Z,53.55
2022-10-03T01:00:45.045Z,52.63
2022-10-03T01:01:43.360Z,56.43
2022-10-03T01:02:42.979Z,50.74
2022-10-03T01:03:42.967Z,45.74
2022-10-03T01:04:42.952Z,49.00
2022-10-03T01:05:42.948Z,57.32
2022-10-03T01:06:42.952Z,43.28
2022-10-03T01:07:42.923Z,41.41
2022-10-03T01:08:42.924Z,52.51
2022-10-03T01:09:42.924Z,49.89
2022-10-03T01:10:42.914Z,43.76
2022-10-03T01:11:43.211Z,45.07
2022-10-03T01:12:42.890Z,53.44
2022-10-03T01:13:42.986Z,47.62
2022-10-03T01:14:42.881Z,41.90
2022-10-03T01:15:42.905Z,50.42
2022-10-03T01:16:42.871Z,39.26
2022-10-03T01:17:42.848Z,47.57
2022-10-03T01:18:42.836Z,41.20
2022-10-03T01:19:42.830Z,46.14
2022-10-03T01:20:42.824Z,46.26
2022-10-03T01:21:42.880Z,55.58
2022-10-03T01:22:42.813Z,54.39
2022-10-03T01:23:42.812Z,50.87
2022-10-03T01:24:42.790Z,41.67
2022-10-03T01:25:42.786Z,57.63
2022-10-03T01:26:42.777Z,53.79
2022-10-03T01:27:42.767Z,45.52
2022-10-03T01:28:42.777Z,51.26
2022-10-03T01:29:42.761Z,49.81
2022-10-03T01:30:42.753Z,48.37
2022-10-03T01:31:43.242Z,49.82
2022-10-03T01:32:42.754Z,45.47
2022-10-03T01:33:42.723Z,45.51
2022-10-03T01:34:42.718Z,53.19
2022-10-03T01:35:42.709Z,48.48
2022-10-03T01:36:43.483Z,56.10
2022-10-03T01:37:42.703Z,47.91
2022-10-03T01:38:42.694Z,51.11
2022-10-03T01:39:42.676Z,57.29
2022-10-03T01:40:42.708Z,50.36
2022-10-03T01:41:43.006Z,52.25
2022-10-03T01:42:42.661Z,47.51
2022-10-03T01:43:42.647Z,45.32
2022-10-03T01:44:42.632Z,48.55
2022-10-03T01:45:42.644Z,48.74
2022-10-03T01:46:42.666Z,45.71
2022-10-03T01:47:42.613Z,50.98
2022-10-03T01:48:42.617Z,47.43
2022-10-03T01:49:42.598Z,52.35
2022-10-03T01:50:43.489Z,52.35
2022-10-03T01:51:42.660Z,43.38
2022-10-03T01:52:43.571Z,41.07
2022-10-03T01:53:43.444Z,52.55
2022-10-03T01:54:42.551Z,51.45
2022-10-03T01:55:43.067Z,45.73
2022-10-03T01:56:42.541Z,53.05
2022-10-03T01:57:42.534Z,49.55
2022-10-03T01:58:42.526Z,52.18
2022-10-03T01:59:42.531Z,51.79
2022-10-03T02:00:42.571Z,48.46
2022-10-03T02:01:43.471Z,50.15
2022-10-03T02:02:44.027Z,52.58
2022-10-03T02:03:42.492Z,58.45
2022-10-03T02:04:42.554Z,48.33
2022-10-03T02:05:42.473Z,50.52
2022-10-03T02:06:42.471Z,45.76
2022-10-03T02:07:42.462Z,52.23
2022-10-03T02:08:42.457Z,53.32
2022-10-03T02:09:42.440Z,50.57
2022-10-03T02:10:42.438Z,46.65
2022-10-03T02:11:42.697Z,48.49
2022-10-03T02:12:42.408Z,53.87
2022-10-03T02:13:43.408Z,53.50
2022-10-03T02:14:42.398Z,49.75
2022-10-03T02:15:42.414Z,48.48
2022-10-03T02:16:42.414Z,52.09
2022-10-03T02:17:42.376Z,51.74
2022-10-03T02:18:42.405Z,54.13
2022-10-03T02:19:42.356Z,55.55
2022-10-03T02:20:42.399Z,43.96
2022-10-03T02:21:42.376Z,53.35
2022-10-03T02:22:42.356Z,49.01
2022-10-03T02:23:42.330Z,46.17
2022-10-03T02:24:42.323Z,45.67
2022-10-03T02:25:42.323Z,52.11
2022-10-03T02:26:42.302Z,51.02
2022-10-03T02:27:42.337Z,47.25
2022-10-03T02:28:42.287Z,56.32
2022-10-03T02:29:42.292Z,57.92
2022-10-03T02:30:42.280Z,57.58
2022-10-03T02:31:42.767Z,52.81
2022-10-03T02:32:42.265Z,47.90
2022-10-03T02:33:42.252Z,40.92
2022-10-03T02:34:42.253Z,49.65
2022-10-03T02:35:42.245Z,45.67
2022-10-03T02:36:42.246Z,47.89
2022-10-03T02:37:42.223Z,61.33
2022-10-03T02:38:42.217Z,55.52
2022-10-03T02:39:42.211Z,59.84
2022-10-03T02:40:42.219Z,59.30
2022-10-03T02:41:42.534Z,61.87
2022-10-03T02:42:42.213Z,62.03
2022-10-03T02:43:42.220Z,58.10
2022-10-03T02:44:42.183Z,54.54
2022-10-03T02:45:42.207Z,45.12
2022-10-03T02:46:42.150Z,49.73
2022-10-03T02:47:42.154Z,55.13
2022-10-03T02:48:42.134Z,42.41
2022-10-03T02:49:42.127Z,42.50
2022-10-03T02:50:42.120Z,41.22
2022-10-03T02:51:42.501Z,52.42
2022-10-03T02:52:42.111Z,52.13
2022-10-03T02:53:42.135Z,47.20
2022-10-03T02:54:42.088Z,50.84
2022-10-03T02:55:42.087Z,47.67
2022-10-03T02:56:42.073Z,51.71
2022-10-03T02:57:42.067Z,52.88
2022-10-03T02:58:42.082Z,45.62
2022-10-03T02:59:42.056Z,50.86
2022-10-03T03:00:42.095Z,46.96
2022-10-03T03:01:42.483Z,58.76
2022-10-03T03:02:42.023Z,48.50
2022-10-03T03:03:42.028Z,53.36
2022-10-03T03:04:42.050Z,55.08
2022-10-03T03:05:42.036Z,60.05
2022-10-03T03:06:41.991Z,48.17
2022-10-03T03:07:41.984Z,41.57
2022-10-03T03:08:41.991Z,46.73
2022-10-03T03:09:41.973Z,44.91
2022-10-03T03:10:41.976Z,49.53
2022-10-03T03:11:42.493Z,50.72
2022-10-03T03:12:41.949Z,48.88
2022-10-03T03:13:42.014Z,53.37
2022-10-03T03:14:41.965Z,53.18
2022-10-03T03:15:41.924Z,52.75
2022-10-03T03:16:41.968Z,54.35
2022-10-03T03:17:41.912Z,47.77
2022-10-03T03:18:41.891Z,56.33
2022-10-03T03:19:41.907Z,51.27
2022-10-03T03:20:41.881Z,43.60
2022-10-03T03:21:42.450Z,49.98
2022-10-03T03:22:41.863Z,55.34
2022-10-03T03:23:41.859Z,56.19
2022-10-03T03:24:41.866Z,59.89
2022-10-03T03:25:41.840Z,54.80
2022-10-03T03:26:41.830Z,52.30
2022-10-03T03:27:41.822Z,55.31
2022-10-03T03:28:41.826Z,42.75
2022-10-03T03:29:42.499Z,43.45
2022-10-03T03:30:41.816Z,47.33
2022-10-03T03:31:43.281Z,50.92
2022-10-03T03:32:41.782Z,53.25
2022-10-03T03:33:41.778Z,50.50
2022-10-03T03:34:41.790Z,60.12
2022-10-03T03:35:41.756Z,56.90
2022-10-03T03:36:41.764Z,60.16
2022-10-03T03:37:41.771Z,56.73
2022-10-03T03:38:41.729Z,57.35
2022-10-03T03:39:41.727Z,56.09
2022-10-03T03:40:41.714Z,57.64
2022-10-03T03:41:42.189Z,58.02
2022-10-03T03:42:41.703Z,51.57
2022-10-03T03:43:41.691Z,55.15
2022-10-03T03:44:41.682Z,50.06
2022-10-03T03:45:41.731Z,46.69
2022-10-03T03:46:41.673Z,48.46
2022-10-03T03:47:41.667Z,49.61
2022-10-03T03:48:41.647Z,51.47
2022-10-03T03:49:41.654Z,55.77
2022-10-03T03:50:41.671Z,55.75
2022-10-03T03:51:41.909Z,55.78
2022-10-03T03:52:41.625Z,47.03
2022-10-03T03:53:41.615Z,52.19
2022-10-03T03:54:41.615Z,52.64
2022-10-03T03:55:41.596Z,40.72
2022-10-03T03:56:41.594Z,47.20
2022-10-03T03:57:41.580Z,51.34
2022-10-03T03:58:41.573Z,48.49
2022-10-03T03:59:41.590Z,52.41
2022-10-03T04:00:41.588Z,53.37
2022-10-03T04:01:42.041Z,49.19
2022-10-03T04:02:41.542Z,53.79
2022-10-03T04:03:41.525Z,60.37
2022-10-03T04:04:41.545Z,56.90
2022-10-03T04:05:41.510Z,51.85
2022-10-03T04:06:41.504Z,52.35
2022-10-03T04:07:41.496Z,40.48
2022-10-03T04:08:41.490Z,43.86
2022-10-03T04:09:41.489Z,51.93
2022-10-03T04:10:41.476Z,54.49
2022-10-03T04:11:41.991Z,57.72
2022-10-03T04:12:41.456Z,55.53
2022-10-03T04:13:41.449Z,52.33
2022-10-03T04:14:41.481Z,49.63
2022-10-03T04:15:41.441Z,49.46
2022-10-03T04:16:41.475Z,55.20
2022-10-03T04:17:41.429Z,50.23
2022-10-03T04:18:41.451Z,55.05
2022-10-03T04:19:41.404Z,60.71
2022-10-03T04:20:41.409Z,50.87
2022-10-03T04:21:41.926Z,53.03
2022-10-03T04:22:41.421Z,55.58
2022-10-03T04:23:41.376Z,50.61
2022-10-03T04:24:41.419Z,49.48
2022-10-03T04:25:41.398Z,50.26
2022-10-03T04:26:41.361Z,50.27
2022-10-03T04:27:41.341Z,54.28
2022-10-03T04:28:41.333Z,59.90
2022-10-03T04:29:41.356Z,56.76
2022-10-03T04:30:41.329Z,50.66
2022-10-03T04:31:41.671Z,53.31
2022-10-03T04:32:41.316Z,57.09
2022-10-03T04:33:41.297Z,52.44
2022-10-03T04:34:41.291Z,55.60
2022-10-03T04:35:41.273Z,56.93
2022-10-03T04:36:41.271Z,52.88
2022-10-03T04:37:41.258Z,54.53
2022-10-03T04:38:41.265Z,58.39
2022-10-03T04:39:41.248Z,52.31
2022-10-03T04:40:41.240Z,61.74
2022-10-03T04:41:43.182Z,54.41
2022-10-03T04:42:42.215Z,60.89
2022-10-03T04:43:41.210Z,55.61
2022-10-03T04:44:41.193Z,54.31
2022-10-03T04:45:42.277Z,53.75
2022-10-03T04:46:41.199Z,53.67
2022-10-03T04:47:41.194Z,56.66
2022-10-03T04:48:41.615Z,48.25
2022-10-03T04:49:41.170Z,45.87
2022-10-03T04:50:41.156Z,55.72
2022-10-03T04:51:41.541Z,55.94
2022-10-03T04:52:41.187Z,53.26
2022-10-03T04:53:41.139Z,52.46
2022-10-03T04:54:41.133Z,49.39
2022-10-03T04:55:41.154Z,56.08
2022-10-03T04:56:41.110Z,51.98
2022-10-03T04:57:41.115Z,55.61
2022-10-03T04:58:41.094Z,58.43
2022-10-03T04:59:42.022Z,53.09
2022-10-03T05:00:41.094Z,55.35
2022-10-03T05:01:41.466Z,60.72
2022-10-03T05:02:41.062Z,56.16
2022-10-03T05:03:41.062Z,59.64
2022-10-03T05:04:41.047Z,57.58
2022-10-03T05:05:41.080Z,58.68
2022-10-03T05:06:41.029Z,56.23
2022-10-03T05:07:41.025Z,53.93
2022-10-03T05:08:41.017Z,52.60
2022-10-03T05:09:41.616Z,56.86
2022-10-03T05:10:41.004Z,54.59
2022-10-03T05:11:41.194Z,54.13
2022-10-03T05:12:40.975Z,52.02
2022-10-03T05:13:40.992Z,59.87
2022-10-03T05:14:40.961Z,54.39
2022-10-03T05:15:40.960Z,59.04
2022-10-03T05:16:41.006Z,55.67
2022-10-03T05:17:40.945Z,59.40
2022-10-03T05:18:40.937Z,55.15
2022-10-03T05:19:40.925Z,54.02
2022-10-03T05:20:40.930Z,57.15
2022-10-03T05:21:41.352Z,56.04
2022-10-03T05:22:40.904Z,49.43
2022-10-03T05:23:40.909Z,51.84
2022-10-03T05:24:40.888Z,55.67
2022-10-03T05:25:40.883Z,43.03
2022-10-03T05:26:45.021Z,41.59
2022-10-03T05:27:42.862Z,60.92
2022-10-03T05:28:40.872Z,53.98
2022-10-03T05:29:40.841Z,56.37
2022-10-03T05:30:40.836Z,52.19
2022-10-03T05:31:41.315Z,56.51
2022-10-03T05:32:40.827Z,48.02
2022-10-03T05:33:40.815Z,55.51
2022-10-03T05:34:40.803Z,60.22
2022-10-03T05:35:40.795Z,54.63
2022-10-03T05:36:40.786Z,51.81
2022-10-03T05:37:40.785Z,49.52
2022-10-03T05:38:40.768Z,60.31
2022-10-03T05:39:40.762Z,52.20
2022-10-03T05:40:40.758Z,42.86
2022-10-03T05:41:40.989Z,48.35
2022-10-03T05:42:40.733Z,47.94
2022-10-03T05:43:40.756Z,50.69
2022-10-03T05:44:40.725Z,56.83
2022-10-03T05:45:40.781Z,56.88
2022-10-03T05:46:40.703Z,54.81
2022-10-03T05:47:40.696Z,50.84
2022-10-03T05:48:40.714Z,50.14
2022-10-03T05:49:40.678Z,55.94
2022-10-03T05:50:40.689Z,58.20
2022-10-03T05:51:41.295Z,56.79
2022-10-03T05:52:40.651Z,51.29
2022-10-03T05:53:40.669Z,48.75
2022-10-03T05:54:40.639Z,51.18
2022-10-03T05:55:40.628Z,56.51
2022-10-03T05:56:41.237Z,56.52
2022-10-03T05:57:41.620Z,61.51
2022-10-03T05:58:40.613Z,52.93
2022-10-03T05:59:40.606Z,50.94
2022-10-03T06:00:40.592Z,48.44
2022-10-03T06:01:41.138Z,59.34
2022-10-03T06:02:40.770Z,57.70
2022-10-03T06:03:40.588Z,58.54
2022-10-03T06:04:40.560Z,57.20
2022-10-03T06:05:40.548Z,49.36
2022-10-03T06:06:40.552Z,55.88
2022-10-03T06:07:40.534Z,58.53
2022-10-03T06:08:40.581Z,55.86
2022-10-03T06:09:40.521Z,53.98
2022-10-03T06:10:40.529Z,55.80
2022-10-03T06:11:41.077Z,54.49
2022-10-03T06:12:40.511Z,54.95
2022-10-03T06:13:40.524Z,57.97
2022-10-03T06:14:40.493Z,51.87
2022-10-03T06:15:40.545Z,53.36
2022-10-03T06:16:40.464Z,58.74
2022-10-03T06:17:43.107Z,57.17
2022-10-03T06:18:41.453Z,50.95
2022-10-03T06:19:40.451Z,59.99
2022-10-03T06:20:40.439Z,59.33
2022-10-03T06:21:40.968Z,62.34
2022-10-03T06:22:40.422Z,61.36
2022-10-03T06:23:40.414Z,63.67
2022-10-03T06:24:40.407Z,60.07
2022-10-03T06:25:40.403Z,52.34
2022-10-03T06:26:40.424Z,56.75
2022-10-03T06:27:40.429Z,56.22
2022-10-03T06:28:40.374Z,60.21
2022-10-03T06:29:40.363Z,53.89
2022-10-03T06:30:40.438Z,58.65
2022-10-03T06:31:40.662Z,63.40
2022-10-03T06:32:40.348Z,64.28
2022-10-03T06:33:40.333Z,63.49
2022-10-03T06:34:40.339Z,64.79
2022-10-03T06:35:40.322Z,59.12
2022-10-03T06:36:40.326Z,64.83
2022-10-03T06:37:40.309Z,60.83
2022-10-03T06:38:40.290Z,58.11
2022-10-03T06:39:40.290Z,56.52
2022-10-03T06:40:40.273Z,61.60
2022-10-03T06:41:40.682Z,57.92
2022-10-03T06:42:40.271Z,53.71
2022-10-03T06:43:41.268Z,54.93
2022-10-03T06:44:40.238Z,58.69
2022-10-03T06:45:40.238Z,56.92
2022-10-03T06:46:40.295Z,59.96
2022-10-03T06:47:40.218Z,58.25
2022-10-03T06:48:40.207Z,62.31
2022-10-03T06:49:40.638Z,58.80
2022-10-03T06:50:40.203Z,61.07
2022-10-03T06:51:40.648Z,60.82
2022-10-03T06:52:40.179Z,61.31
2022-10-03T06:53:40.197Z,63.39
2022-10-03T06:54:40.170Z,57.49
2022-10-03T06:55:40.173Z,53.73
2022-10-03T06:56:41.209Z,60.17
2022-10-03T06:57:40.137Z,52.94
2022-10-03T06:58:40.128Z,58.99
2022-10-03T06:59:40.125Z,54.26
2022-10-03T07:00:40.115Z,58.99
2022-10-03T07:01:40.423Z,55.54
2022-10-03T07:02:40.117Z,51.71
2022-10-03T07:03:40.105Z,57.62
2022-10-03T07:04:40.095Z,66.22
2022-10-03T07:05:41.283Z,61.16
2022-10-03T07:06:41.063Z,54.46
2022-10-03T07:07:40.077Z,55.70
2022-10-03T07:08:40.061Z,55.15
2022-10-03T07:09:40.039Z,57.10
2022-10-03T07:10:40.037Z,59.46
2022-10-03T07:11:40.421Z,57.44
2022-10-03T07:12:40.023Z,62.04
2022-10-03T07:13:40.003Z,59.70
2022-10-03T07:14:40.030Z,60.03
2022-10-03T07:16:08.402Z,58.12
2022-10-03T07:16:42.014Z,56.51
2022-10-03T07:17:39.971Z,60.17
2022-10-03T07:18:39.967Z,57.80
2022-10-03T07:19:39.984Z,58.18
2022-10-03T07:20:39.964Z,65.33
2022-10-03T07:21:40.402Z,62.30
2022-10-03T07:22:39.992Z,58.46
2022-10-03T07:23:39.938Z,56.54
2022-10-03T07:24:39.920Z,58.22
2022-10-03T07:25:39.918Z,58.66
2022-10-03T07:26:39.916Z,58.62
2022-10-03T07:27:39.895Z,59.85
2022-10-03T07:28:40.050Z,61.24
2022-10-03T07:29:39.888Z,52.24
2022-10-03T07:30:39.875Z,60.94
2022-10-03T07:31:40.191Z,58.80
2022-10-03T07:32:39.857Z,59.96
2022-10-03T07:33:39.860Z,60.47
2022-10-03T07:34:39.845Z,61.12
2022-10-03T07:35:39.835Z,61.62
2022-10-03T07:36:39.841Z,63.75
2022-10-03T07:37:39.839Z,62.32
2022-10-03T07:38:39.821Z,60.19
2022-10-03T07:39:39.802Z,60.40
2022-10-03T07:40:40.561Z,62.31
2022-10-03T07:41:40.112Z,49.76
2022-10-03T07:42:43.522Z,61.59
2022-10-03T07:43:42.057Z,60.25
2022-10-03T07:44:39.758Z,57.88
2022-10-03T07:45:39.754Z,62.64
2022-10-03T07:46:39.790Z,59.41
2022-10-03T07:47:39.745Z,62.01
2022-10-03T07:48:39.725Z,59.61
2022-10-03T07:49:39.731Z,57.57
2022-10-03T07:50:39.715Z,62.01
2022-10-03T07:51:40.138Z,61.98
2022-10-03T07:52:39.716Z,63.07
2022-10-03T07:53:39.699Z,61.08
2022-10-03T07:54:39.708Z,60.51
2022-10-03T07:55:39.684Z,59.45
2022-10-03T07:56:39.663Z,57.99
2022-10-03T07:57:39.683Z,63.67
2022-10-03T07:58:39.656Z,58.66
2022-10-03T07:59:39.657Z,57.31
2022-10-03T08:00:40.833Z,59.19
2022-10-03T08:01:41.943Z,60.65
2022-10-03T08:02:39.655Z,59.86
2022-10-03T08:03:40.596Z,61.32
2022-10-03T08:04:39.602Z,62.24
2022-10-03T08:05:39.593Z,59.43
2022-10-03T08:06:39.599Z,62.31
2022-10-03T08:07:39.573Z,60.26
2022-10-03T08:08:39.569Z,59.35
2022-10-03T08:09:39.580Z,61.00
2022-10-03T08:10:40.799Z,61.38
2022-10-03T08:11:40.914Z,56.77
2022-10-03T08:12:39.537Z,61.21
2022-10-03T08:13:39.589Z,60.79
2022-10-03T08:14:39.519Z,61.52
2022-10-03T08:15:39.549Z,60.92
2022-10-03T08:16:39.513Z,61.04
2022-10-03T08:17:39.556Z,62.76
2022-10-03T08:18:39.496Z,61.65
2022-10-03T08:19:39.483Z,59.88
2022-10-03T08:20:39.482Z,62.53
2022-10-03T08:21:39.819Z,61.90
2022-10-03T08:22:39.459Z,60.48
2022-10-03T08:23:39.467Z,64.55
2022-10-03T08:24:39.454Z,61.12
2022-10-03T08:25:39.461Z,58.75
2022-10-03T08:26:39.457Z,60.27
2022-10-03T08:27:39.425Z,60.28
2022-10-03T08:28:39.415Z,61.37
2022-10-03T08:29:39.407Z,57.43
2022-10-03T08:30:39.396Z,60.12
2022-10-03T08:31:39.739Z,63.26
2022-10-03T08:32:39.417Z,62.51
2022-10-03T08:33:39.386Z,63.06
2022-10-03T08:34:39.399Z,61.70
2022-10-03T08:35:39.371Z,59.33
2022-10-03T08:36:39.365Z,60.63
2022-10-03T08:37:39.348Z,61.62
2022-10-03T08:38:39.358Z,60.97
2022-10-03T08:39:39.344Z,60.66
2022-10-03T08:40:39.351Z,58.13
2022-10-03T08:41:39.571Z,58.57
2022-10-03T08:42:40.167Z,60.10
2022-10-03T08:43:39.311Z,62.21
2022-10-03T08:44:39.286Z,59.93
2022-10-03T08:45:39.280Z,61.71
2022-10-03T08:46:39.343Z,58.52
2022-10-03T08:47:39.263Z,61.66
2022-10-03T08:48:39.268Z,65.28
2022-10-03T08:49:39.264Z,63.86
2022-10-03T08:50:39.259Z,64.91
2022-10-03T08:51:40.625Z,62.57
2022-10-03T08:52:39.223Z,62.12
2022-10-03T08:53:39.276Z,59.74
2022-10-03T08:54:39.211Z,62.67
2022-10-03T08:55:39.206Z,61.32
2022-10-03T08:56:39.187Z,61.21
2022-10-03T08:57:39.189Z,61.36
2022-10-03T08:58:39.183Z,60.67
2022-10-03T08:59:39.185Z,60.85
2022-10-03T09:00:39.178Z,61.54
2022-10-03T09:01:39.509Z,62.10
2022-10-03T09:02:39.226Z,60.71
2022-10-03T09:03:43.198Z,62.92
2022-10-03T09:04:40.159Z,67.86
2022-10-03T09:05:39.126Z,61.63
2022-10-03T09:06:52.749Z,59.25
2022-10-03T09:07:41.160Z,58.50
2022-10-03T09:08:39.093Z,55.49
2022-10-03T09:09:39.096Z,62.32
2022-10-03T09:10:39.079Z,61.98
2022-10-03T09:11:40.142Z,62.32
2022-10-03T09:12:39.426Z,59.59
2022-10-03T09:13:39.075Z,60.94
2022-10-03T09:14:39.074Z,58.60
2022-10-03T09:15:39.144Z,59.01
2022-10-03T09:16:39.384Z,60.35
2022-10-03T09:17:39.043Z,60.50
2022-10-03T09:18:39.027Z,60.84
2022-10-03T09:19:39.038Z,62.25
2022-10-03T09:20:39.010Z,63.86
2022-10-03T09:21:39.004Z,60.05
2022-10-03T09:22:39.030Z,62.75
2022-10-03T09:23:38.996Z,61.37
2022-10-03T09:24:38.973Z,61.29
2022-10-03T09:25:40.299Z,61.76
2022-10-03T09:26:40.104Z,59.15
2022-10-03T09:27:39.952Z,60.04
2022-10-03T09:28:40.247Z,60.87
2022-10-03T09:29:39.671Z,62.97
2022-10-03T09:30:38.960Z,60.74
2022-10-03T09:31:39.356Z,64.90
2022-10-03T09:32:38.908Z,61.87
2022-10-03T09:33:38.933Z,60.48
2022-10-03T09:34:38.939Z,58.44
2022-10-03T09:35:39.185Z,63.62
2022-10-03T09:36:38.879Z,65.19
2022-10-03T09:37:39.699Z,61.61
2022-10-03T09:38:38.998Z,61.31
2022-10-03T09:39:38.945Z,61.29
2022-10-03T09:40:39.753Z,61.61
2022-10-03T09:41:39.170Z,59.04
2022-10-03T09:42:39.742Z,62.95
2022-10-03T09:43:38.911Z,63.00
2022-10-03T09:44:38.832Z,60.58
2022-10-03T09:45:38.865Z,59.20
2022-10-03T09:46:41.886Z,63.01
2022-10-03T09:47:39.796Z,58.95
2022-10-03T09:48:38.801Z,62.73
2022-10-03T09:49:38.794Z,62.48
2022-10-03T09:50:38.807Z,60.09
2022-10-03T09:51:39.214Z,60.93
2022-10-03T09:52:38.777Z,61.33
2022-10-03T09:53:38.749Z,60.20
2022-10-03T09:54:38.850Z,62.65
2022-10-03T09:55:38.743Z,62.31
2022-10-03T09:56:39.033Z,60.06
2022-10-03T09:57:38.717Z,61.59
2022-10-03T09:58:38.762Z,64.18
2022-10-03T09:59:38.737Z,61.79
2022-10-03T10:00:38.779Z,63.93
2022-10-03T10:01:38.945Z,61.90
2022-10-03T10:02:38.677Z,62.25
2022-10-03T10:03:40.243Z,62.98
2022-10-03T10:04:54.363Z,60.86
2022-10-03T10:05:40.666Z,62.22
2022-10-03T10:06:38.928Z,61.41
2022-10-03T10:07:40.160Z,62.30
2022-10-03T10:08:39.200Z,59.32
2022-10-03T10:09:38.640Z,63.92
2022-10-03T10:10:38.665Z,63.73
2022-10-03T10:11:39.177Z,61.23
2022-10-03T10:12:38.668Z,62.39
2022-10-03T10:14:03.211Z,61.59
2022-10-03T10:14:40.585Z,59.97
2022-10-03T10:15:38.622Z,61.16
2022-10-03T10:16:39.069Z,60.90
2022-10-03T10:17:38.693Z,58.66
2022-10-03T10:18:38.557Z,63.14
2022-10-03T10:19:38.567Z,63.59
2022-10-03T10:20:38.654Z,64.92
2022-10-03T10:21:38.566Z,67.26
2022-10-03T10:22:38.533Z,64.50
2022-10-03T10:23:38.553Z,62.33
2022-10-03T10:24:38.513Z,63.35
2022-10-03T10:25:38.524Z,62.40
2022-10-03T10:26:38.491Z,58.26
2022-10-03T10:27:38.489Z,58.97
2022-10-03T10:28:38.499Z,60.95
2022-10-03T10:29:38.459Z,61.33
2022-10-03T10:30:38.459Z,60.32
2022-10-03T10:31:38.556Z,60.90
2022-10-03T10:32:38.451Z,59.08
2022-10-03T10:33:38.486Z,59.69
2022-10-03T10:34:38.437Z,61.76
2022-10-03T10:35:38.417Z,59.88
2022-10-03T10:36:38.773Z,59.15
2022-10-03T10:37:41.596Z,61.31
2022-10-03T10:38:39.398Z,61.69
2022-10-03T10:39:38.395Z,61.21
2022-10-03T10:40:38.382Z,61.48
2022-10-03T10:41:38.715Z,59.58
2022-10-03T10:42:38.368Z,59.55
2022-10-03T10:43:38.366Z,60.40
2022-10-03T10:44:38.372Z,60.88
2022-10-03T10:45:38.343Z,61.78
2022-10-03T10:46:38.689Z,59.12
2022-10-03T10:47:38.325Z,59.26
2022-10-03T10:48:38.331Z,61.50
2022-10-03T10:49:38.326Z,62.45
2022-10-03T10:50:40.125Z,63.20
2022-10-03T10:51:38.294Z,63.52
2022-10-03T10:52:39.309Z,64.35
2022-10-03T10:53:38.283Z,62.23
2022-10-03T10:54:38.280Z,63.70
2022-10-03T10:55:40.773Z,64.34
2022-10-03T10:56:38.629Z,61.97
2022-10-03T10:57:38.248Z,63.10
2022-10-03T10:58:38.244Z,62.00
2022-10-03T10:59:38.231Z,63.04
2022-10-03T11:00:38.323Z,62.26
2022-10-03T11:01:39.443Z,61.84
2022-10-03T11:02:38.210Z,62.70
2022-10-03T11:03:38.226Z,65.03
2022-10-03T11:04:38.244Z,64.59
2022-10-03T11:05:38.243Z,63.35
2022-10-03T11:06:38.612Z,60.39
2022-10-03T11:07:38.174Z,61.93
2022-10-03T11:08:38.159Z,59.33
2022-10-03T11:09:38.162Z,62.83
2022-10-03T11:10:39.735Z,63.42
2022-10-03T11:11:38.136Z,60.62
2022-10-03T11:12:38.169Z,59.81
2022-10-03T11:13:38.670Z,60.97
2022-10-03T11:14:38.130Z,61.76
2022-10-03T11:15:38.701Z,61.33
2022-10-03T11:16:38.551Z,61.12
2022-10-03T11:17:38.107Z,61.67
2022-10-03T11:18:38.097Z,61.71
2022-10-03T11:19:38.075Z,64.66
2022-10-03T11:20:38.086Z,60.96
2022-10-03T11:21:38.072Z,62.12
2022-10-03T11:22:38.044Z,64.07
2022-10-03T11:23:38.040Z,61.14
2022-10-03T11:24:38.051Z,61.31
2022-10-03T11:25:38.034Z,69.46
2022-10-03T11:26:38.450Z,62.38
2022-10-03T11:27:38.002Z,61.75
2022-10-03T11:28:38.079Z,62.06
2022-10-03T11:29:38.004Z,61.05
2022-10-03T11:30:38.019Z,61.70
2022-10-03T11:31:38.091Z,63.88
2022-10-03T11:32:37.984Z,61.75
2022-10-03T11:33:37.963Z,62.61
2022-10-03T11:34:37.950Z,64.02
2022-10-03T11:35:42.238Z,61.73
2022-10-03T11:36:40.291Z,60.93
2022-10-03T11:37:37.927Z,62.71
2022-10-03T11:38:37.936Z,62.03
2022-10-03T11:39:37.914Z,62.00
2022-10-03T11:40:37.902Z,61.43
2022-10-03T11:41:37.890Z,61.76
2022-10-03T11:42:37.892Z,63.15
2022-10-03T11:43:37.882Z,59.69
2022-10-03T11:44:37.866Z,60.35
2022-10-03T11:45:37.931Z,62.72
2022-10-03T11:46:38.311Z,65.19
2022-10-03T11:47:37.879Z,64.50
2022-10-03T11:48:37.852Z,60.25
2022-10-03T11:49:37.847Z,61.20
2022-10-03T11:50:37.862Z,62.91
2022-10-03T11:51:38.651Z,62.04
2022-10-03T11:52:37.806Z,63.40
2022-10-03T11:53:37.884Z,62.05
2022-10-03T11:54:37.786Z,59.81
2022-10-03T11:55:37.791Z,62.31
2022-10-03T11:56:38.276Z,62.23
2022-10-03T11:57:37.791Z,62.24
2022-10-03T11:58:37.765Z,62.56
2022-10-03T11:59:37.761Z,61.48
2022-10-03T12:00:37.762Z,61.94
2022-10-03T12:01:38.105Z,62.10
2022-10-03T12:02:37.812Z,60.99
2022-10-03T12:03:37.759Z,62.81
2022-10-03T12:04:37.730Z,64.31
2022-10-03T12:05:37.708Z,61.08
2022-10-03T12:06:37.923Z,61.94
2022-10-03T12:07:37.711Z,60.41
2022-10-03T12:08:37.713Z,60.10
2022-10-03T12:09:37.688Z,62.20
2022-10-03T12:10:37.666Z,62.44
2022-10-03T12:11:37.972Z,61.75
2022-10-03T12:12:37.658Z,61.03
2022-10-03T12:13:37.674Z,61.39
2022-10-03T12:14:37.647Z,59.21
2022-10-03T12:15:37.632Z,60.71
2022-10-03T12:16:37.652Z,60.96
2022-10-03T12:17:37.626Z,59.88
2022-10-03T12:18:37.622Z,63.51
2022-10-03T12:19:37.608Z,63.64
2022-10-03T12:20:37.595Z,65.59
2022-10-03T12:21:37.864Z,62.95
2022-10-03T12:22:38.576Z,64.40
2022-10-03T12:23:38.222Z,63.06
2022-10-03T12:24:37.560Z,58.53
2022-10-03T12:25:37.566Z,64.00
2022-10-03T12:26:37.582Z,61.73
2022-10-03T12:27:37.551Z,61.89
2022-10-03T12:28:37.587Z,63.86
2022-10-03T12:29:37.534Z,64.43
2022-10-03T12:30:37.534Z,62.69
2022-10-03T12:31:37.805Z,62.57
2022-10-03T12:32:37.502Z,63.21
2022-10-03T12:33:37.493Z,62.73
2022-10-03T12:34:37.511Z,62.81
2022-10-03T12:35:37.476Z,63.11
2022-10-03T12:36:37.676Z,63.67
2022-10-03T12:37:37.477Z,63.04
2022-10-03T12:38:37.455Z,61.57
2022-10-03T12:39:37.447Z,61.04
2022-10-03T12:40:37.434Z,61.43
2022-10-03T12:41:37.921Z,61.81
2022-10-03T12:42:37.427Z,59.11
2022-10-03T12:43:37.432Z,60.90
2022-10-03T12:44:37.410Z,60.32
2022-10-03T12:45:37.423Z,62.66
2022-10-03T12:46:37.417Z,60.71
2022-10-03T12:47:54.746Z,65.46
2022-10-03T12:48:39.385Z,62.67
2022-10-03T12:49:37.511Z,63.24
2022-10-03T12:50:37.367Z,64.61
2022-10-03T12:51:37.712Z,63.86
2022-10-03T12:52:37.358Z,64.50
2022-10-03T12:53:37.340Z,61.32
2022-10-03T12:54:37.326Z,61.87